sensor_id;sensor_type;location;lat;lon;timestamp;P1;durP1;ratioP1;P2;durP2;ratioP2
21806;SDS011;11065;50.786;7.840;2022-09-25T00:00:58;14.70;;;10.50;;
21806;SDS011;11065;50.786;7.840;2022-09-25T00:03:26;13.50;;;10.60;;
21806;SDS011;11065;50.786;7.840;2022-09-25T00:06:08;12.83;;;10.37;;
21806;SDS011;11065;50.786;7.840;2022-09-25T00:08:43;12.33;;;9.67;;
21806;SDS011;11065;50.786;7.840;2022-09-25T00:11:14;13.03;;;10.27;;
21806;SDS011;11065;50.786;7.840;2022-09-25T00:13:53;13.40;;;10.03;;
21806;SDS011;11065;50.786;7.840;2022-09-25T00:16:21;13.70;;;11.37;;
21806;SDS011;11065;50.786;7.840;2022-09-25T00:18:51;13.63;;;10.53;;
21806;SDS011;11065;50.786;7.840;2022-09-25T00:21:37;13.33;;;10.83;;
21806;SDS011;11065;50.786;7.840;2022-09-25T00:24:05;13.00;;;10.53;;
21806;SDS011;11065;50.786;7.840;2022-09-25T00:26:36;13.37;;;11.10;;
21806;SDS011;11065;50.786;7.840;2022-09-25T00:29:05;12.87;;;10.43;;
21806;SDS011;11065;50.786;7.840;2022-09-25T00:31:33;13.37;;;10.70;;
21806;SDS011;11065;50.786;7.840;2022-09-25T00:34:00;15.53;;;12.33;;
21806;SDS011;11065;50.786;7.840;2022-09-25T00:36:30;15.23;;;12.37;;
21806;SDS011;11065;50.786;7.840;2022-09-25T00:38:58;15.83;;;12.67;;
21806;SDS011;11065;50.786;7.840;2022-09-25T00:41:26;14.37;;;11.80;;
21806;SDS011;11065;50.786;7.840;2022-09-25T00:43:57;14.17;;;11.60;;
21806;SDS011;11065;50.786;7.840;2022-09-25T00:46:29;15.60;;;12.20;;
21806;SDS011;11065;50.786;7.840;2022-09-25T00:49:09;14.70;;;11.97;;
21806;SDS011;11065;50.786;7.840;2022-09-25T00:54:26;14.87;;;12.30;;
21806;SDS011;11065;50.786;7.840;2022-09-25T00:56:59;14.90;;;11.53;;
21806;SDS011;11065;50.786;7.840;2022-09-25T00:59:30;15.83;;;12.33;;
21806;SDS011;11065;50.786;7.840;2022-09-25T01:02:00;14.27;;;11.63;;
21806;SDS011;11065;50.786;7.840;2022-09-25T01:04:27;14.73;;;11.40;;
21806;SDS011;11065;50.786;7.840;2022-09-25T01:06:58;13.20;;;11.20;;
21806;SDS011;11065;50.786;7.840;2022-09-25T01:09:25;12.47;;;10.60;;
21806;SDS011;11065;50.786;7.840;2022-09-25T01:11:53;14.40;;;10.33;;
21806;SDS011;11065;50.786;7.840;2022-09-25T01:14:19;13.23;;;10.60;;
21806;SDS011;11065;50.786;7.840;2022-09-25T01:28:45;11.83;;;9.97;;
21806;SDS011;11065;50.786;7.840;2022-09-25T01:34:17;12.80;;;10.10;;
21806;SDS011;11065;50.786;7.840;2022-09-25T01:36:57;13.07;;;11.23;;
21806;SDS011;11065;50.786;7.840;2022-09-25T01:39:38;12.73;;;10.93;;
21806;SDS011;11065;50.786;7.840;2022-09-25T01:42:29;13.83;;;11.33;;
21806;SDS011;11065;50.786;7.840;2022-09-25T01:45:05;13.27;;;10.57;;
21806;SDS011;11065;50.786;7.840;2022-09-25T01:47:36;15.60;;;11.40;;
21806;SDS011;11065;50.786;7.840;2022-09-25T01:50:09;14.07;;;10.97;;
21806;SDS011;11065;50.786;7.840;2022-09-25T01:52:44;12.93;;;10.50;;
21806;SDS011;11065;50.786;7.840;2022-09-25T01:55:20;12.63;;;10.57;;
21806;SDS011;11065;50.786;7.840;2022-09-25T02:00:22;13.70;;;10.60;;
21806;SDS011;11065;50.786;7.840;2022-09-25T02:02:58;13.63;;;10.50;;
21806;SDS011;11065;50.786;7.840;2022-09-25T02:05:33;15.93;;;10.40;;
21806;SDS011;11065;50.786;7.840;2022-09-25T02:08:09;12.33;;;10.47;;
21806;SDS011;11065;50.786;7.840;2022-09-25T02:10:42;13.73;;;10.87;;
21806;SDS011;11065;50.786;7.840;2022-09-25T02:13:15;12.30;;;10.47;;
21806;SDS011;11065;50.786;7.840;2022-09-25T02:15:45;12.47;;;9.93;;
21806;SDS011;11065;50.786;7.840;2022-09-25T02:18:19;13.53;;;9.70;;
21806;SDS011;11065;50.786;7.840;2022-09-25T02:21:11;12.63;;;9.67;;
21806;SDS011;11065;50.786;7.840;2022-09-25T02:26:31;14.77;;;10.77;;
21806;SDS011;11065;50.786;7.840;2022-09-25T02:29:00;18.43;;;11.80;;
21806;SDS011;11065;50.786;7.840;2022-09-25T02:31:28;14.73;;;11.47;;
21806;SDS011;11065;50.786;7.840;2022-09-25T02:34:05;14.77;;;11.23;;
21806;SDS011;11065;50.786;7.840;2022-09-25T02:36:40;15.37;;;11.90;;
21806;SDS011;11065;50.786;7.840;2022-09-25T02:39:08;16.33;;;12.50;;
21806;SDS011;11065;50.786;7.840;2022-09-25T02:41:43;18.30;;;13.03;;
21806;SDS011;11065;50.786;7.840;2022-09-25T02:44:31;15.87;;;12.73;;
21806;SDS011;11065;50.786;7.840;2022-09-25T02:50:15;13.70;;;11.37;;
21806;SDS011;11065;50.786;7.840;2022-09-25T02:58:46;14.83;;;11.93;;
21806;SDS011;11065;50.786;7.840;2022-09-25T03:01:16;12.90;;;10.83;;
21806;SDS011;11065;50.786;7.840;2022-09-25T03:03:46;15.07;;;12.00;;
21806;SDS011;11065;50.786;7.840;2022-09-25T03:06:14;13.43;;;11.73;;
21806;SDS011;11065;50.786;7.840;2022-09-25T03:08:43;15.93;;;12.13;;
21806;SDS011;11065;50.786;7.840;2022-09-25T03:11:15;14.43;;;11.70;;
21806;SDS011;11065;50.786;7.840;2022-09-25T03:13:45;13.90;;;12.03;;
21806;SDS011;11065;50.786;7.840;2022-09-25T03:18:50;14.73;;;12.50;;
21806;SDS011;11065;50.786;7.840;2022-09-25T03:21:17;14.73;;;11.93;;
21806;SDS011;11065;50.786;7.840;2022-09-25T03:23:44;14.87;;;11.37;;
21806;SDS011;11065;50.786;7.840;2022-09-25T03:26:10;14.07;;;11.90;;
21806;SDS011;11065;50.786;7.840;2022-09-25T03:28:38;14.77;;;12.47;;
21806;SDS011;11065;50.786;7.840;2022-09-25T03:31:05;16.00;;;12.43;;
21806;SDS011;11065;50.786;7.840;2022-09-25T03:33:36;15.30;;;11.73;;
21806;SDS011;11065;50.786;7.840;2022-09-25T03:36:20;15.13;;;11.70;;
21806;SDS011;11065;50.786;7.840;2022-09-25T03:38:52;17.57;;;12.87;;
21806;SDS011;11065;50.786;7.840;2022-09-25T03:41:25;16.63;;;12.70;;
21806;SDS011;11065;50.786;7.840;2022-09-25T03:43:54;15.83;;;12.23;;
21806;SDS011;11065;50.786;7.840;2022-09-25T03:46:22;15.53;;;11.27;;
21806;SDS011;11065;50.786;7.840;2022-09-25T03:48:57;17.10;;;12.70;;
21806;SDS011;11065;50.786;7.840;2022-09-25T03:51:26;16.67;;;12.00;;
21806;SDS011;11065;50.786;7.840;2022-09-25T03:53:54;17.10;;;13.63;;
21806;SDS011;11065;50.786;7.840;2022-09-25T03:56:22;18.33;;;12.77;;
21806;SDS011;11065;50.786;7.840;2022-09-25T03:58:51;16.87;;;12.77;;
21806;SDS011;11065;50.786;7.840;2022-09-25T04:01:19;15.30;;;12.50;;
21806;SDS011;11065;50.786;7.840;2022-09-25T04:03:47;17.00;;;12.73;;
21806;SDS011;11065;50.786;7.840;2022-09-25T04:06:16;17.33;;;12.07;;
21806;SDS011;11065;50.786;7.840;2022-09-25T04:08:45;18.07;;;13.40;;
21806;SDS011;11065;50.786;7.840;2022-09-25T04:11:13;17.47;;;13.63;;
21806;SDS011;11065;50.786;7.840;2022-09-25T04:13:41;16.83;;;12.33;;
21806;SDS011;11065;50.786;7.840;2022-09-25T04:16:09;16.37;;;13.30;;
21806;SDS011;11065;50.786;7.840;2022-09-25T04:18:37;14.23;;;10.83;;
21806;SDS011;11065;50.786;7.840;2022-09-25T04:21:08;15.23;;;12.10;;
21806;SDS011;11065;50.786;7.840;2022-09-25T04:23:36;20.37;;;11.87;;
21806;SDS011;11065;50.786;7.840;2022-09-25T04:26:04;14.97;;;11.20;;
21806;SDS011;11065;50.786;7.840;2022-09-25T04:28:31;15.03;;;11.87;;
21806;SDS011;11065;50.786;7.840;2022-09-25T04:30:59;14.33;;;11.50;;
21806;SDS011;11065;50.786;7.840;2022-09-25T04:33:27;15.30;;;12.50;;
21806;SDS011;11065;50.786;7.840;2022-09-25T04:36:14;15.87;;;10.67;;
21806;SDS011;11065;50.786;7.840;2022-09-25T04:38:41;14.20;;;10.50;;
21806;SDS011;11065;50.786;7.840;2022-09-25T04:41:09;14.73;;;11.30;;
21806;SDS011;11065;50.786;7.840;2022-09-25T04:43:36;14.17;;;10.63;;
21806;SDS011;11065;50.786;7.840;2022-09-25T04:46:04;13.77;;;9.80;;
21806;SDS011;11065;50.786;7.840;2022-09-25T04:48:33;12.37;;;10.13;;
21806;SDS011;11065;50.786;7.840;2022-09-25T04:51:00;12.63;;;10.10;;
21806;SDS011;11065;50.786;7.840;2022-09-25T04:53:28;13.27;;;9.80;;
21806;SDS011;11065;50.786;7.840;2022-09-25T04:56:00;12.27;;;10.10;;
21806;SDS011;11065;50.786;7.840;2022-09-25T04:58:28;12.67;;;9.60;;
21806;SDS011;11065;50.786;7.840;2022-09-25T05:00:59;13.43;;;10.40;;
21806;SDS011;11065;50.786;7.840;2022-09-25T05:03:27;12.97;;;9.97;;
21806;SDS011;11065;50.786;7.840;2022-09-25T05:05:55;13.07;;;9.83;;
21806;SDS011;11065;50.786;7.840;2022-09-25T05:08:22;12.80;;;10.27;;
21806;SDS011;11065;50.786;7.840;2022-09-25T05:10:48;13.17;;;9.80;;
21806;SDS011;11065;50.786;7.840;2022-09-25T05:13:15;12.27;;;9.70;;
21806;SDS011;11065;50.786;7.840;2022-09-25T05:15:42;12.53;;;9.57;;
21806;SDS011;11065;50.786;7.840;2022-09-25T05:18:15;13.80;;;9.93;;
21806;SDS011;11065;50.786;7.840;2022-09-25T05:20:46;12.37;;;9.50;;
21806;SDS011;11065;50.786;7.840;2022-09-25T05:23:14;11.33;;;9.30;;
21806;SDS011;11065;50.786;7.840;2022-09-25T05:25:41;12.07;;;9.80;;
21806;SDS011;11065;50.786;7.840;2022-09-25T05:28:08;10.47;;;8.30;;
21806;SDS011;11065;50.786;7.840;2022-09-25T05:30:35;11.60;;;9.40;;
21806;SDS011;11065;50.786;7.840;2022-09-25T05:33:04;11.90;;;9.43;;
21806;SDS011;11065;50.786;7.840;2022-09-25T05:35:31;11.77;;;8.63;;
21806;SDS011;11065;50.786;7.840;2022-09-25T05:37:58;11.33;;;8.80;;
21806;SDS011;11065;50.786;7.840;2022-09-25T05:40:26;11.90;;;9.23;;
21806;SDS011;11065;50.786;7.840;2022-09-25T05:42:53;11.97;;;9.20;;
21806;SDS011;11065;50.786;7.840;2022-09-25T05:45:23;11.43;;;9.07;;
21806;SDS011;11065;50.786;7.840;2022-09-25T05:47:58;11.50;;;8.93;;
21806;SDS011;11065;50.786;7.840;2022-09-25T05:50:29;10.67;;;8.97;;
21806;SDS011;11065;50.786;7.840;2022-09-25T05:52:58;10.43;;;8.00;;
21806;SDS011;11065;50.786;7.840;2022-09-25T05:55:30;11.53;;;8.87;;
21806;SDS011;11065;50.786;7.840;2022-09-25T05:58:01;10.73;;;8.63;;
21806;SDS011;11065;50.786;7.840;2022-09-25T06:00:29;10.47;;;8.57;;
21806;SDS011;11065;50.786;7.840;2022-09-25T06:03:00;11.20;;;8.37;;
21806;SDS011;11065;50.786;7.840;2022-09-25T06:05:27;10.90;;;8.20;;
21806;SDS011;11065;50.786;7.840;2022-09-25T06:07:54;10.00;;;7.43;;
21806;SDS011;11065;50.786;7.840;2022-09-25T06:10:21;9.97;;;7.97;;
21806;SDS011;11065;50.786;7.840;2022-09-25T06:12:51;11.30;;;8.33;;
21806;SDS011;11065;50.786;7.840;2022-09-25T06:15:24;10.67;;;8.20;;
21806;SDS011;11065;50.786;7.840;2022-09-25T06:17:53;9.27;;;7.40;;
21806;SDS011;11065;50.786;7.840;2022-09-25T06:20:21;11.33;;;7.90;;
21806;SDS011;11065;50.786;7.840;2022-09-25T06:22:52;10.73;;;8.47;;
21806;SDS011;11065;50.786;7.840;2022-09-25T06:25:22;9.70;;;7.60;;
21806;SDS011;11065;50.786;7.840;2022-09-25T06:27:52;9.27;;;7.23;;
21806;SDS011;11065;50.786;7.840;2022-09-25T06:30:23;12.13;;;8.60;;
21806;SDS011;11065;50.786;7.840;2022-09-25T06:32:56;11.27;;;7.17;;
21806;SDS011;11065;50.786;7.840;2022-09-25T06:35:23;9.47;;;7.30;;
21806;SDS011;11065;50.786;7.840;2022-09-25T06:37:51;8.67;;;7.13;;
21806;SDS011;11065;50.786;7.840;2022-09-25T06:40:21;8.90;;;7.00;;
21806;SDS011;11065;50.786;7.840;2022-09-25T06:42:52;8.93;;;7.00;;
21806;SDS011;11065;50.786;7.840;2022-09-25T06:45:21;8.13;;;6.43;;
21806;SDS011;11065;50.786;7.840;2022-09-25T06:47:47;9.60;;;6.67;;
21806;SDS011;11065;50.786;7.840;2022-09-25T06:50:14;9.80;;;6.43;;
21806;SDS011;11065;50.786;7.840;2022-09-25T06:52:41;10.40;;;8.10;;
21806;SDS011;11065;50.786;7.840;2022-09-25T06:55:09;7.37;;;5.50;;
21806;SDS011;11065;50.786;7.840;2022-09-25T06:57:36;8.63;;;6.07;;
21806;SDS011;11065;50.786;7.840;2022-09-25T07:00:04;10.00;;;6.63;;
21806;SDS011;11065;50.786;7.840;2022-09-25T07:02:31;7.53;;;6.17;;
21806;SDS011;11065;50.786;7.840;2022-09-25T07:05:16;7.30;;;5.70;;
21806;SDS011;11065;50.786;7.840;2022-09-25T07:07:44;9.37;;;6.40;;
21806;SDS011;11065;50.786;7.840;2022-09-25T07:10:11;8.40;;;5.97;;
21806;SDS011;11065;50.786;7.840;2022-09-25T07:12:38;8.13;;;5.90;;
21806;SDS011;11065;50.786;7.840;2022-09-25T07:15:06;8.90;;;6.67;;
21806;SDS011;11065;50.786;7.840;2022-09-25T07:17:33;9.20;;;6.30;;
21806;SDS011;11065;50.786;7.840;2022-09-25T07:20:00;8.30;;;5.80;;
21806;SDS011;11065;50.786;7.840;2022-09-25T07:22:27;9.10;;;6.67;;
21806;SDS011;11065;50.786;7.840;2022-09-25T07:24:54;9.50;;;5.97;;
21806;SDS011;11065;50.786;7.840;2022-09-25T07:27:21;8.67;;;6.40;;
21806;SDS011;11065;50.786;7.840;2022-09-25T07:29:48;6.47;;;5.50;;
21806;SDS011;11065;50.786;7.840;2022-09-25T07:32:14;7.47;;;5.43;;
21806;SDS011;11065;50.786;7.840;2022-09-25T07:34:41;7.73;;;6.03;;
21806;SDS011;11065;50.786;7.840;2022-09-25T07:37:08;7.20;;;5.43;;
21806;SDS011;11065;50.786;7.840;2022-09-25T07:39:35;7.93;;;5.63;;
21806;SDS011;11065;50.786;7.840;2022-09-25T07:42:02;8.70;;;5.83;;
21806;SDS011;11065;50.786;7.840;2022-09-25T07:44:29;6.53;;;4.83;;
21806;SDS011;11065;50.786;7.840;2022-09-25T07:47:03;6.47;;;5.30;;
21806;SDS011;11065;50.786;7.840;2022-09-25T07:49:30;6.53;;;5.13;;
21806;SDS011;11065;50.786;7.840;2022-09-25T07:51:57;6.53;;;4.97;;
21806;SDS011;11065;50.786;7.840;2022-09-25T07:54:24;7.40;;;5.03;;
21806;SDS011;11065;50.786;7.840;2022-09-25T07:56:51;8.53;;;5.03;;
21806;SDS011;11065;50.786;7.840;2022-09-25T07:59:18;8.23;;;5.77;;
21806;SDS011;11065;50.786;7.840;2022-09-25T08:01:45;6.70;;;5.57;;
21806;SDS011;11065;50.786;7.840;2022-09-25T08:04:18;6.60;;;5.20;;
21806;SDS011;11065;50.786;7.840;2022-09-25T08:06:45;7.83;;;4.63;;
21806;SDS011;11065;50.786;7.840;2022-09-25T08:09:12;6.70;;;4.50;;
21806;SDS011;11065;50.786;7.840;2022-09-25T08:11:39;7.73;;;4.30;;
21806;SDS011;11065;50.786;7.840;2022-09-25T08:14:05;6.47;;;5.07;;
21806;SDS011;11065;50.786;7.840;2022-09-25T08:16:32;6.63;;;4.63;;
21806;SDS011;11065;50.786;7.840;2022-09-25T08:18:59;6.07;;;3.63;;
21806;SDS011;11065;50.786;7.840;2022-09-25T08:21:26;6.87;;;4.17;;
21806;SDS011;11065;50.786;7.840;2022-09-25T08:23:52;6.03;;;4.07;;
21806;SDS011;11065;50.786;7.840;2022-09-25T08:26:21;7.90;;;4.37;;
21806;SDS011;11065;50.786;7.840;2022-09-25T08:28:48;4.67;;;3.63;;
21806;SDS011;11065;50.786;7.840;2022-09-25T08:31:16;6.63;;;4.00;;
21806;SDS011;11065;50.786;7.840;2022-09-25T08:33:44;4.50;;;3.30;;
21806;SDS011;11065;50.786;7.840;2022-09-25T08:36:12;5.47;;;3.50;;
21806;SDS011;11065;50.786;7.840;2022-09-25T08:38:39;5.40;;;3.73;;
21806;SDS011;11065;50.786;7.840;2022-09-25T08:49:59;5.10;;;2.97;;
21806;SDS011;11065;50.786;7.840;2022-09-25T08:52:46;4.47;;;3.07;;
21806;SDS011;11065;50.786;7.840;2022-09-25T08:55:26;4.10;;;2.70;;
21806;SDS011;11065;50.786;7.840;2022-09-25T08:58:19;4.80;;;2.57;;
21806;SDS011;11065;50.786;7.840;2022-09-25T09:00:52;5.27;;;2.23;;
21806;SDS011;11065;50.786;7.840;2022-09-25T09:03:21;4.67;;;2.70;;
21806;SDS011;11065;50.786;7.840;2022-09-25T09:05:53;6.07;;;2.43;;
21806;SDS011;11065;50.786;7.840;2022-09-25T09:08:25;5.67;;;2.03;;
21806;SDS011;11065;50.786;7.840;2022-09-25T09:10:56;4.77;;;1.80;;
21806;SDS011;11065;50.786;7.840;2022-09-25T09:13:48;7.73;;;2.37;;
21806;SDS011;11065;50.786;7.840;2022-09-25T09:18:52;5.37;;;1.93;;
21806;SDS011;11065;50.786;7.840;2022-09-25T09:24:04;4.83;;;1.80;;
21806;SDS011;11065;50.786;7.840;2022-09-25T09:29:38;4.57;;;1.67;;
21806;SDS011;11065;50.786;7.840;2022-09-25T09:37:39;6.27;;;2.43;;
21806;SDS011;11065;50.786;7.840;2022-09-25T09:46:06;6.07;;;2.17;;
21806;SDS011;11065;50.786;7.840;2022-09-25T09:48:59;6.47;;;2.10;;
21806;SDS011;11065;50.786;7.840;2022-09-25T09:51:36;4.17;;;1.47;;
21806;SDS011;11065;50.786;7.840;2022-09-25T09:56:36;3.37;;;1.50;;
21806;SDS011;11065;50.786;7.840;2022-09-25T09:59:13;5.60;;;1.40;;
21806;SDS011;11065;50.786;7.840;2022-09-25T10:01:46;4.60;;;1.30;;
21806;SDS011;11065;50.786;7.840;2022-09-25T10:04:24;3.90;;;1.23;;
21806;SDS011;11065;50.786;7.840;2022-09-25T10:06:59;5.57;;;1.40;;
21806;SDS011;11065;50.786;7.840;2022-09-25T10:09:32;5.70;;;1.20;;
21806;SDS011;11065;50.786;7.840;2022-09-25T10:12:46;3.80;;;1.27;;
21806;SDS011;11065;50.786;7.840;2022-09-25T10:15:00;2.73;;;1.13;;
21806;SDS011;11065;50.786;7.840;2022-09-25T10:17:29;3.43;;;1.10;;
21806;SDS011;11065;50.786;7.840;2022-09-25T10:19:58;6.17;;;1.40;;
21806;SDS011;11065;50.786;7.840;2022-09-25T10:22:32;3.33;;;1.23;;
21806;SDS011;11065;50.786;7.840;2022-09-25T10:25:03;3.93;;;1.13;;
21806;SDS011;11065;50.786;7.840;2022-09-25T10:41:07;4.83;;;1.07;;
21806;SDS011;11065;50.786;7.840;2022-09-25T10:46:26;5.33;;;1.40;;
21806;SDS011;11065;50.786;7.840;2022-09-25T10:49:23;3.90;;;1.17;;
21806;SDS011;11065;50.786;7.840;2022-09-25T10:52:10;3.83;;;1.00;;
21806;SDS011;11065;50.786;7.840;2022-09-25T10:54:39;6.40;;;1.10;;
21806;SDS011;11065;50.786;7.840;2022-09-25T11:00:05;4.17;;;1.60;;
21806;SDS011;11065;50.786;7.840;2022-09-25T11:02:45;4.43;;;1.23;;
21806;SDS011;11065;50.786;7.840;2022-09-25T11:05:14;4.33;;;1.20;;
21806;SDS011;11065;50.786;7.840;2022-09-25T11:07:54;2.93;;;1.40;;
21806;SDS011;11065;50.786;7.840;2022-09-25T11:10:25;2.80;;;1.10;;
21806;SDS011;11065;50.786;7.840;2022-09-25T11:12:55;3.27;;;1.00;;
21806;SDS011;11065;50.786;7.840;2022-09-25T11:15:24;6.47;;;1.80;;
21806;SDS011;11065;50.786;7.840;2022-09-25T11:17:53;4.83;;;1.03;;
21806;SDS011;11065;50.786;7.840;2022-09-25T11:20:30;4.27;;;1.43;;
21806;SDS011;11065;50.786;7.840;2022-09-25T11:25:54;4.40;;;1.20;;
21806;SDS011;11065;50.786;7.840;2022-09-25T11:28:36;4.07;;;0.93;;
21806;SDS011;11065;50.786;7.840;2022-09-25T11:31:41;3.60;;;1.13;;
21806;SDS011;11065;50.786;7.840;2022-09-25T11:36:45;6.93;;;1.00;;
21806;SDS011;11065;50.786;7.840;2022-09-25T11:39:19;4.93;;;1.63;;
21806;SDS011;11065;50.786;7.840;2022-09-25T11:42:15;3.30;;;1.10;;
21806;SDS011;11065;50.786;7.840;2022-09-25T11:45:01;3.37;;;1.10;;
21806;SDS011;11065;50.786;7.840;2022-09-25T11:47:39;5.30;;;1.00;;
21806;SDS011;11065;50.786;7.840;2022-09-25T11:50:35;5.73;;;1.20;;
21806;SDS011;11065;50.786;7.840;2022-09-25T11:56:00;8.00;;;1.10;;
21806;SDS011;11065;50.786;7.840;2022-09-25T11:58:51;3.97;;;1.00;;
21806;SDS011;11065;50.786;7.840;2022-09-25T12:01:34;4.27;;;1.10;;
21806;SDS011;11065;50.786;7.840;2022-09-25T12:07:16;6.40;;;1.00;;
21806;SDS011;11065;50.786;7.840;2022-09-25T12:16:16;2.00;;;0.80;;
21806;SDS011;11065;50.786;7.840;2022-09-25T12:21:09;3.83;;;1.10;;
21806;SDS011;11065;50.786;7.840;2022-09-25T12:24:21;4.07;;;1.40;;
21806;SDS011;11065;50.786;7.840;2022-09-25T12:26:51;3.57;;;1.00;;
21806;SDS011;11065;50.786;7.840;2022-09-25T12:32:26;3.40;;;1.00;;
21806;SDS011;11065;50.786;7.840;2022-09-25T12:35:02;4.60;;;1.03;;
21806;SDS011;11065;50.786;7.840;2022-09-25T12:41:50;1.97;;;0.80;;
21806;SDS011;11065;50.786;7.840;2022-09-25T12:44:35;2.03;;;0.90;;
21806;SDS011;11065;50.786;7.840;2022-09-25T12:49:25;2.70;;;0.90;;
21806;SDS011;11065;50.786;7.840;2022-09-25T12:52:02;3.23;;;1.00;;
21806;SDS011;11065;50.786;7.840;2022-09-25T12:54:40;4.53;;;0.80;;
21806;SDS011;11065;50.786;7.840;2022-09-25T12:57:15;3.57;;;1.17;;
21806;SDS011;11065;50.786;7.840;2022-09-25T13:00:07;3.20;;;1.00;;
21806;SDS011;11065;50.786;7.840;2022-09-25T13:02:53;5.70;;;1.03;;
21806;SDS011;11065;50.786;7.840;2022-09-25T13:05:34;3.27;;;1.10;;
21806;SDS011;11065;50.786;7.840;2022-09-25T13:11:00;3.07;;;0.80;;
21806;SDS011;11065;50.786;7.840;2022-09-25T13:13:29;3.83;;;0.80;;
21806;SDS011;11065;50.786;7.840;2022-09-25T13:16:01;2.80;;;0.77;;
21806;SDS011;11065;50.786;7.840;2022-09-25T13:18:29;2.57;;;0.90;;
21806;SDS011;11065;50.786;7.840;2022-09-25T13:23:48;4.00;;;0.80;;
21806;SDS011;11065;50.786;7.840;2022-09-25T13:26:17;2.87;;;1.23;;
21806;SDS011;11065;50.786;7.840;2022-09-25T13:28:51;4.00;;;1.00;;
21806;SDS011;11065;50.786;7.840;2022-09-25T13:31:23;3.13;;;0.73;;
21806;SDS011;11065;50.786;7.840;2022-09-25T13:36:49;3.67;;;0.90;;
21806;SDS011;11065;50.786;7.840;2022-09-25T13:39:32;6.97;;;1.00;;
21806;SDS011;11065;50.786;7.840;2022-09-25T13:42:25;3.23;;;0.70;;
21806;SDS011;11065;50.786;7.840;2022-09-25T13:49:52;7.70;;;1.00;;
21806;SDS011;11065;50.786;7.840;2022-09-25T13:52:27;3.43;;;1.10;;
21806;SDS011;11065;50.786;7.840;2022-09-25T13:55:29;6.73;;;1.10;;
21806;SDS011;11065;50.786;7.840;2022-09-25T14:00:23;2.47;;;0.80;;
21806;SDS011;11065;50.786;7.840;2022-09-25T14:06:10;3.53;;;1.00;;
21806;SDS011;11065;50.786;7.840;2022-09-25T14:08:47;1.87;;;0.80;;
21806;SDS011;11065;50.786;7.840;2022-09-25T14:11:16;2.87;;;0.80;;
21806;SDS011;11065;50.786;7.840;2022-09-25T14:13:49;3.17;;;0.90;;
21806;SDS011;11065;50.786;7.840;2022-09-25T14:16:21;4.10;;;1.00;;
21806;SDS011;11065;50.786;7.840;2022-09-25T14:18:53;4.73;;;1.00;;
21806;SDS011;11065;50.786;7.840;2022-09-25T14:21:26;4.63;;;1.00;;
21806;SDS011;11065;50.786;7.840;2022-09-25T14:23:55;1.93;;;0.73;;
21806;SDS011;11065;50.786;7.840;2022-09-25T14:26:42;2.73;;;1.00;;
21806;SDS011;11065;50.786;7.840;2022-09-25T14:29:13;3.50;;;1.00;;
21806;SDS011;11065;50.786;7.840;2022-09-25T14:34:27;3.17;;;0.87;;
21806;SDS011;11065;50.786;7.840;2022-09-25T14:43:08;4.67;;;0.90;;
21806;SDS011;11065;50.786;7.840;2022-09-25T14:46:12;2.20;;;0.70;;
21806;SDS011;11065;50.786;7.840;2022-09-25T14:48:46;4.27;;;1.33;;
21806;SDS011;11065;50.786;7.840;2022-09-25T14:51:20;3.77;;;1.10;;
21806;SDS011;11065;50.786;7.840;2022-09-25T14:53:52;3.53;;;1.77;;
21806;SDS011;11065;50.786;7.840;2022-09-25T14:56:22;5.37;;;1.13;;
21806;SDS011;11065;50.786;7.840;2022-09-25T14:58:53;2.30;;;0.90;;
21806;SDS011;11065;50.786;7.840;2022-09-25T15:03:56;3.43;;;0.80;;
21806;SDS011;11065;50.786;7.840;2022-09-25T15:06:27;2.07;;;0.63;;
21806;SDS011;11065;50.786;7.840;2022-09-25T15:08:57;2.00;;;0.60;;
21806;SDS011;11065;50.786;7.840;2022-09-25T15:11:37;2.57;;;1.10;;
21806;SDS011;11065;50.786;7.840;2022-09-25T15:14:24;4.90;;;1.00;;
21806;SDS011;11065;50.786;7.840;2022-09-25T15:16:50;1.93;;;0.80;;
21806;SDS011;11065;50.786;7.840;2022-09-25T15:19:37;2.33;;;0.97;;
21806;SDS011;11065;50.786;7.840;2022-09-25T15:22:15;1.93;;;0.90;;
21806;SDS011;11065;50.786;7.840;2022-09-25T15:25:06;4.63;;;0.90;;
21806;SDS011;11065;50.786;7.840;2022-09-25T15:27:46;3.43;;;1.00;;
21806;SDS011;11065;50.786;7.840;2022-09-25T15:30:15;3.07;;;1.00;;
21806;SDS011;11065;50.786;7.840;2022-09-25T15:32:42;2.50;;;1.00;;
21806;SDS011;11065;50.786;7.840;2022-09-25T15:37:45;2.40;;;1.03;;
21806;SDS011;11065;50.786;7.840;2022-09-25T15:42:46;3.67;;;1.00;;
21806;SDS011;11065;50.786;7.840;2022-09-25T15:45:32;1.80;;;0.83;;
21806;SDS011;11065;50.786;7.840;2022-09-25T15:48:15;1.97;;;0.70;;
21806;SDS011;11065;50.786;7.840;2022-09-25T15:51:00;1.53;;;0.90;;
21806;SDS011;11065;50.786;7.840;2022-09-25T15:53:32;3.17;;;0.70;;
21806;SDS011;11065;50.786;7.840;2022-09-25T15:56:25;3.60;;;1.23;;
21806;SDS011;11065;50.786;7.840;2022-09-25T15:58:54;2.80;;;1.30;;
21806;SDS011;11065;50.786;7.840;2022-09-25T16:01:30;2.03;;;1.00;;
21806;SDS011;11065;50.786;7.840;2022-09-25T16:04:19;3.30;;;1.30;;
21806;SDS011;11065;50.786;7.840;2022-09-25T16:07:28;1.33;;;0.60;;
21806;SDS011;11065;50.786;7.840;2022-09-25T16:17:52;2.43;;;1.20;;
21806;SDS011;11065;50.786;7.840;2022-09-25T16:22:50;3.30;;;0.80;;
21806;SDS011;11065;50.786;7.840;2022-09-25T16:25:25;1.97;;;0.50;;
21806;SDS011;11065;50.786;7.840;2022-09-25T16:28:03;3.83;;;1.10;;
21806;SDS011;11065;50.786;7.840;2022-09-25T16:30:45;4.63;;;1.87;;
21806;SDS011;11065;50.786;7.840;2022-09-25T16:33:20;5.87;;;2.63;;
21806;SDS011;11065;50.786;7.840;2022-09-25T16:35:50;8.73;;;4.80;;
21806;SDS011;11065;50.786;7.840;2022-09-25T16:38:37;8.20;;;5.03;;
21806;SDS011;11065;50.786;7.840;2022-09-25T16:43:44;2.70;;;1.40;;
21806;SDS011;11065;50.786;7.840;2022-09-25T16:46:12;3.87;;;2.00;;
21806;SDS011;11065;50.786;7.840;2022-09-25T16:48:43;5.83;;;2.90;;
21806;SDS011;11065;50.786;7.840;2022-09-25T16:51:22;2.87;;;2.10;;
21806;SDS011;11065;50.786;7.840;2022-09-25T16:53:52;3.53;;;1.87;;
21806;SDS011;11065;50.786;7.840;2022-09-25T16:56:22;4.60;;;1.70;;
21806;SDS011;11065;50.786;7.840;2022-09-25T16:58:51;4.37;;;1.83;;
21806;SDS011;11065;50.786;7.840;2022-09-25T17:01:19;4.17;;;1.93;;
21806;SDS011;11065;50.786;7.840;2022-09-25T17:03:47;5.30;;;1.50;;
21806;SDS011;11065;50.786;7.840;2022-09-25T17:06:18;3.03;;;1.50;;
21806;SDS011;11065;50.786;7.840;2022-09-25T17:08:46;3.77;;;1.80;;
21806;SDS011;11065;50.786;7.840;2022-09-25T17:11:15;5.43;;;1.67;;
21806;SDS011;11065;50.786;7.840;2022-09-25T17:13:43;5.63;;;2.50;;
21806;SDS011;11065;50.786;7.840;2022-09-25T17:16:10;5.40;;;2.20;;
21806;SDS011;11065;50.786;7.840;2022-09-25T17:18:38;4.13;;;1.50;;
21806;SDS011;11065;50.786;7.840;2022-09-25T17:21:09;4.63;;;1.73;;
21806;SDS011;11065;50.786;7.840;2022-09-25T17:23:39;5.93;;;2.10;;
21806;SDS011;11065;50.786;7.840;2022-09-25T17:26:16;9.93;;;4.23;;
21806;SDS011;11065;50.786;7.840;2022-09-25T17:28:47;17.53;;;8.10;;
21806;SDS011;11065;50.786;7.840;2022-09-25T17:31:18;19.20;;;8.87;;
21806;SDS011;11065;50.786;7.840;2022-09-25T17:33:46;17.07;;;7.93;;
21806;SDS011;11065;50.786;7.840;2022-09-25T17:36:17;10.17;;;4.83;;
21806;SDS011;11065;50.786;7.840;2022-09-25T17:38:44;7.33;;;3.73;;
21806;SDS011;11065;50.786;7.840;2022-09-25T17:41:14;7.17;;;2.67;;
21806;SDS011;11065;50.786;7.840;2022-09-25T17:43:45;8.73;;;3.03;;
21806;SDS011;11065;50.786;7.840;2022-09-25T17:46:12;8.50;;;3.97;;
21806;SDS011;11065;50.786;7.840;2022-09-25T17:48:41;8.00;;;4.20;;
21806;SDS011;11065;50.786;7.840;2022-09-25T17:51:14;7.53;;;3.30;;
21806;SDS011;11065;50.786;7.840;2022-09-25T17:53:45;7.27;;;2.83;;